sensor_id;sensor_type;location;lat;lon;timestamp;temperature;humidity
47338;DHT22;33069;51.970;5.892;2023-06-19T00:01:50;22.50;57.20
47338;DHT22;33069;51.970;5.892;2023-06-19T00:04:15;22.40;57.20
47338;DHT22;33069;51.970;5.892;2023-06-19T00:06:41;22.50;57.00
47338;DHT22;33069;51.970;5.892;2023-06-19T00:09:07;22.40;57.40
47338;DHT22;33069;51.970;5.892;2023-06-19T00:11:33;22.40;57.70
47338;DHT22;33069;51.970;5.892;2023-06-19T00:13:58;22.40;57.90
47338;DHT22;33069;51.970;5.892;2023-06-19T00:16:24;22.40;57.80
47338;DHT22;33069;51.970;5.892;2023-06-19T00:18:52;22.40;58.00
47338;DHT22;33069;51.970;5.892;2023-06-19T00:21:22;22.40;58.30
47338;DHT22;33069;51.970;5.892;2023-06-19T00:23:50;22.40;58.30
47338;DHT22;33069;51.970;5.892;2023-06-19T00:26:16;22.30;59.10
47338;DHT22;33069;51.970;5.892;2023-06-19T00:28:43;22.40;59.20
47338;DHT22;33069;51.970;5.892;2023-06-19T00:31:11;22.40;59.00
47338;DHT22;33069;51.970;5.892;2023-06-19T00:33:39;22.40;59.00
47338;DHT22;33069;51.970;5.892;2023-06-19T00:36:12;22.30;59.20
47338;DHT22;33069;51.970;5.892;2023-06-19T00:38:39;22.30;59.60
47338;DHT22;33069;51.970;5.892;2023-06-19T00:41:05;22.30;59.60
47338;DHT22;33069;51.970;5.892;2023-06-19T00:43:32;22.30;59.80
47338;DHT22;33069;51.970;5.892;2023-06-19T00:45:58;22.30;59.90
47338;DHT22;33069;51.970;5.892;2023-06-19T00:48:24;22.30;59.90
47338;DHT22;33069;51.970;5.892;2023-06-19T00:50:50;22.30;60.10
47338;DHT22;33069;51.970;5.892;2023-06-19T00:53:17;22.30;60.10
47338;DHT22;33069;51.970;5.892;2023-06-19T00:55:43;22.30;60.10
47338;DHT22;33069;51.970;5.892;2023-06-19T00:58:10;22.30;60.20
47338;DHT22;33069;51.970;5.892;2023-06-19T01:00:36;22.30;60.20
47338;DHT22;33069;51.970;5.892;2023-06-19T01:03:01;22.30;60.20
47338;DHT22;33069;51.970;5.892;2023-06-19T01:05:27;22.30;60.40
47338;DHT22;33069;51.970;5.892;2023-06-19T01:08:00;22.40;59.80
47338;DHT22;33069;51.970;5.892;2023-06-19T01:10:38;22.30;59.90
47338;DHT22;33069;51.970;5.892;2023-06-19T01:13:10;22.40;60.00
47338;DHT22;33069;51.970;5.892;2023-06-19T01:15:38;22.30;60.00
47338;DHT22;33069;51.970;5.892;2023-06-19T01:18:06;22.30;59.90
47338;DHT22;33069;51.970;5.892;2023-06-19T01:20:32;22.30;60.20
47338;DHT22;33069;51.970;5.892;2023-06-19T01:23:08;22.30;60.00
47338;DHT22;33069;51.970;5.892;2023-06-19T01:25:34;22.20;59.90
47338;DHT22;33069;51.970;5.892;2023-06-19T01:28:02;22.20;59.80
47338;DHT22;33069;51.970;5.892;2023-06-19T01:30:29;22.20;59.70
47338;DHT22;33069;51.970;5.892;2023-06-19T01:32:58;22.20;59.50
47338;DHT22;33069;51.970;5.892;2023-06-19T01:35:28;22.20;59.40
47338;DHT22;33069;51.970;5.892;2023-06-19T01:37:55;22.10;60.10
47338;DHT22;33069;51.970;5.892;2023-06-19T01:40:23;22.10;59.80
47338;DHT22;33069;51.970;5.892;2023-06-19T01:42:53;22.00;60.00
47338;DHT22;33069;51.970;5.892;2023-06-19T01:45:20;21.90;60.20
47338;DHT22;33069;51.970;5.892;2023-06-19T01:47:46;21.80;60.40
47338;DHT22;33069;51.970;5.892;2023-06-19T01:50:11;21.80;60.50
47338;DHT22;33069;51.970;5.892;2023-06-19T01:52:40;21.70;60.70
47338;DHT22;33069;51.970;5.892;2023-06-19T01:55:06;21.60;60.90
47338;DHT22;33069;51.970;5.892;2023-06-19T01:57:32;21.60;61.10
47338;DHT22;33069;51.970;5.892;2023-06-19T01:59:58;21.50;61.60
47338;DHT22;33069;51.970;5.892;2023-06-19T02:02:24;21.40;61.60
47338;DHT22;33069;51.970;5.892;2023-06-19T02:04:50;21.40;61.70
47338;DHT22;33069;51.970;5.892;2023-06-19T02:07:15;21.30;61.80
47338;DHT22;33069;51.970;5.892;2023-06-19T02:09:41;21.30;61.90
47338;DHT22;33069;51.970;5.892;2023-06-19T02:12:07;21.30;62.10
47338;DHT22;33069;51.970;5.892;2023-06-19T02:14:33;21.20;62.30
47338;DHT22;33069;51.970;5.892;2023-06-19T02:16:59;21.10;62.60
47338;DHT22;33069;51.970;5.892;2023-06-19T02:19:25;21.10;62.60
47338;DHT22;33069;51.970;5.892;2023-06-19T02:21:50;21.00;62.90
47338;DHT22;33069;51.970;5.892;2023-06-19T02:24:16;21.00;63.20
47338;DHT22;33069;51.970;5.892;2023-06-19T02:26:42;20.90;63.70
47338;DHT22;33069;51.970;5.892;2023-06-19T02:29:09;20.80;64.20
47338;DHT22;33069;51.970;5.892;2023-06-19T02:31:35;20.80;64.30
47338;DHT22;33069;51.970;5.892;2023-06-19T02:34:01;20.80;64.80
47338;DHT22;33069;51.970;5.892;2023-06-19T02:36:27;20.70;65.20
47338;DHT22;33069;51.970;5.892;2023-06-19T02:38:52;20.50;65.90
47338;DHT22;33069;51.970;5.892;2023-06-19T02:41:18;20.40;66.20
47338;DHT22;33069;51.970;5.892;2023-06-19T02:43:45;20.40;66.50
47338;DHT22;33069;51.970;5.892;2023-06-19T02:46:14;20.30;66.70
47338;DHT22;33069;51.970;5.892;2023-06-19T02:48:39;20.30;67.00
47338;DHT22;33069;51.970;5.892;2023-06-19T02:51:05;20.30;67.20
47338;DHT22;33069;51.970;5.892;2023-06-19T02:53:31;20.20;67.60
47338;DHT22;33069;51.970;5.892;2023-06-19T02:55:56;20.20;67.90
47338;DHT22;33069;51.970;5.892;2023-06-19T02:58:22;20.10;68.40
47338;DHT22;33069;51.970;5.892;2023-06-19T03:00:48;20.00;68.90
47338;DHT22;33069;51.970;5.892;2023-06-19T03:03:14;20.00;69.20
47338;DHT22;33069;51.970;5.892;2023-06-19T03:05:39;20.00;69.40
47338;DHT22;33069;51.970;5.892;2023-06-19T03:08:05;19.90;69.90
47338;DHT22;33069;51.970;5.892;2023-06-19T03:10:31;19.90;70.40
47338;DHT22;33069;51.970;5.892;2023-06-19T03:12:57;19.80;70.90
47338;DHT22;33069;51.970;5.892;2023-06-19T03:15:25;19.80;71.10
47338;DHT22;33069;51.970;5.892;2023-06-19T03:17:53;19.80;71.30
47338;DHT22;33069;51.970;5.892;2023-06-19T03:20:19;19.80;71.40
47338;DHT22;33069;51.970;5.892;2023-06-19T03:22:46;19.80;71.20
47338;DHT22;33069;51.970;5.892;2023-06-19T03:25:11;19.80;71.40
47338;DHT22;33069;51.970;5.892;2023-06-19T03:27:37;19.80;71.10
47338;DHT22;33069;51.970;5.892;2023-06-19T03:30:04;19.90;71.00
47338;DHT22;33069;51.970;5.892;2023-06-19T03:32:33;19.80;71.30
47338;DHT22;33069;51.970;5.892;2023-06-19T03:34:59;19.70;71.50
47338;DHT22;33069;51.970;5.892;2023-06-19T03:37:25;19.70;71.80
47338;DHT22;33069;51.970;5.892;2023-06-19T03:39:51;19.80;71.90
47338;DHT22;33069;51.970;5.892;2023-06-19T03:42:16;19.70;72.10
47338;DHT22;33069;51.970;5.892;2023-06-19T03:44:42;19.80;72.00
47338;DHT22;33069;51.970;5.892;2023-06-19T03:47:08;19.80;72.10
47338;DHT22;33069;51.970;5.892;2023-06-19T03:49:33;19.80;72.00
47338;DHT22;33069;51.970;5.892;2023-06-19T03:51:59;19.90;72.10
47338;DHT22;33069;51.970;5.892;2023-06-19T03:54:25;19.90;72.00
47338;DHT22;33069;51.970;5.892;2023-06-19T03:56:52;20.00;72.40
47338;DHT22;33069;51.970;5.892;2023-06-19T03:59:18;20.00;72.00
47338;DHT22;33069;51.970;5.892;2023-06-19T04:01:43;20.10;71.80
47338;DHT22;33069;51.970;5.892;2023-06-19T04:04:09;20.10;71.50
47338;DHT22;33069;51.970;5.892;2023-06-19T04:06:35;20.10;71.40
47338;DHT22;33069;51.970;5.892;2023-06-19T04:09:00;20.10;71.40
47338;DHT22;33069;51.970;5.892;2023-06-19T04:11:26;20.10;72.00
47338;DHT22;33069;51.970;5.892;2023-06-19T04:13:52;20.10;71.90
47338;DHT22;33069;51.970;5.892;2023-06-19T04:16:17;20.10;72.00
47338;DHT22;33069;51.970;5.892;2023-06-19T04:18:43;20.10;71.90
47338;DHT22;33069;51.970;5.892;2023-06-19T04:21:09;20.20;72.00
47338;DHT22;33069;51.970;5.892;2023-06-19T04:23:34;20.20;71.80
47338;DHT22;33069;51.970;5.892;2023-06-19T04:26:00;20.10;71.90
47338;DHT22;33069;51.970;5.892;2023-06-19T04:28:26;20.20;72.30
47338;DHT22;33069;51.970;5.892;2023-06-19T04:30:52;20.10;72.30
47338;DHT22;33069;51.970;5.892;2023-06-19T04:33:28;20.10;72.60
47338;DHT22;33069;51.970;5.892;2023-06-19T04:35:57;20.10;73.10
47338;DHT22;33069;51.970;5.892;2023-06-19T04:38:24;20.00;73.60
47338;DHT22;33069;51.970;5.892;2023-06-19T04:40:53;20.00;73.30
47338;DHT22;33069;51.970;5.892;2023-06-19T04:43:19;20.00;73.50
47338;DHT22;33069;51.970;5.892;2023-06-19T04:45:45;19.90;73.90
47338;DHT22;33069;51.970;5.892;2023-06-19T04:48:11;20.00;74.00
47338;DHT22;33069;51.970;5.892;2023-06-19T04:50:37;20.00;74.20
47338;DHT22;33069;51.970;5.892;2023-06-19T04:53:03;20.00;74.20
47338;DHT22;33069;51.970;5.892;2023-06-19T04:55:28;20.10;74.20
47338;DHT22;33069;51.970;5.892;2023-06-19T04:57:54;20.20;73.90
47338;DHT22;33069;51.970;5.892;2023-06-19T05:00:20;20.10;74.10
47338;DHT22;33069;51.970;5.892;2023-06-19T05:02:49;20.10;74.30
47338;DHT22;33069;51.970;5.892;2023-06-19T05:05:15;20.10;74.60
47338;DHT22;33069;51.970;5.892;2023-06-19T05:07:41;19.90;75.10
47338;DHT22;33069;51.970;5.892;2023-06-19T05:10:07;19.90;75.30
47338;DHT22;33069;51.970;5.892;2023-06-19T05:12:34;20.00;75.30
47338;DHT22;33069;51.970;5.892;2023-06-19T05:15:00;19.80;75.50
47338;DHT22;33069;51.970;5.892;2023-06-19T05:17:25;19.80;75.90
47338;DHT22;33069;51.970;5.892;2023-06-19T05:19:51;19.80;76.20
47338;DHT22;33069;51.970;5.892;2023-06-19T05:22:17;19.80;76.50
47338;DHT22;33069;51.970;5.892;2023-06-19T05:24:44;19.70;77.30
47338;DHT22;33069;51.970;5.892;2023-06-19T05:27:10;19.70;77.30
47338;DHT22;33069;51.970;5.892;2023-06-19T05:29:36;19.60;77.60
47338;DHT22;33069;51.970;5.892;2023-06-19T05:32:02;19.60;77.60
47338;DHT22;33069;51.970;5.892;2023-06-19T05:34:27;19.60;78.10
47338;DHT22;33069;51.970;5.892;2023-06-19T05:36:53;19.50;78.80
47338;DHT22;33069;51.970;5.892;2023-06-19T05:39:19;19.60;78.90
47338;DHT22;33069;51.970;5.892;2023-06-19T05:41:44;19.70;78.60
47338;DHT22;33069;51.970;5.892;2023-06-19T05:44:11;19.70;78.20
47338;DHT22;33069;51.970;5.892;2023-06-19T05:46:41;19.80;78.00
47338;DHT22;33069;51.970;5.892;2023-06-19T05:49:07;20.00;77.90
47338;DHT22;33069;51.970;5.892;2023-06-19T05:51:33;20.10;77.30
47338;DHT22;33069;51.970;5.892;2023-06-19T05:53:58;20.20;76.90
47338;DHT22;33069;51.970;5.892;2023-06-19T05:56:29;20.30;76.40
47338;DHT22;33069;51.970;5.892;2023-06-19T05:58:55;20.30;75.90
47338;DHT22;33069;51.970;5.892;2023-06-19T06:01:20;20.30;75.80
47338;DHT22;33069;51.970;5.892;2023-06-19T06:03:46;20.30;75.60
47338;DHT22;33069;51.970;5.892;2023-06-19T06:06:12;20.30;75.70
47338;DHT22;33069;51.970;5.892;2023-06-19T06:08:37;20.40;75.10
47338;DHT22;33069;51.970;5.892;2023-06-19T06:11:03;20.40;75.40
47338;DHT22;33069;51.970;5.892;2023-06-19T06:13:29;20.30;75.50
47338;DHT22;33069;51.970;5.892;2023-06-19T06:15:54;20.30;75.40
47338;DHT22;33069;51.970;5.892;2023-06-19T06:18:20;20.30;75.50
47338;DHT22;33069;51.970;5.892;2023-06-19T06:20:46;20.40;75.60
47338;DHT22;33069;51.970;5.892;2023-06-19T06:23:12;20.30;75.60
47338;DHT22;33069;51.970;5.892;2023-06-19T06:25:38;20.40;75.60
47338;DHT22;33069;51.970;5.892;2023-06-19T06:28:03;20.30;75.80
47338;DHT22;33069;51.970;5.892;2023-06-19T06:30:30;20.30;76.40
47338;DHT22;33069;51.970;5.892;2023-06-19T06:32:56;20.10;76.60
47338;DHT22;33069;51.970;5.892;2023-06-19T06:35:22;20.10;76.60
47338;DHT22;33069;51.970;5.892;2023-06-19T06:37:47;20.10;76.70
47338;DHT22;33069;51.970;5.892;2023-06-19T06:40:15;20.00;76.70
47338;DHT22;33069;51.970;5.892;2023-06-19T06:42:41;20.10;77.00
47338;DHT22;33069;51.970;5.892;2023-06-19T06:45:07;20.10;76.70
47338;DHT22;33069;51.970;5.892;2023-06-19T06:47:34;20.20;76.70
47338;DHT22;33069;51.970;5.892;2023-06-19T06:50:00;20.10;76.50
47338;DHT22;33069;51.970;5.892;2023-06-19T06:52:26;20.20;76.60
47338;DHT22;33069;51.970;5.892;2023-06-19T06:54:53;20.10;76.70
47338;DHT22;33069;51.970;5.892;2023-06-19T06:57:19;20.00;76.50
47338;DHT22;33069;51.970;5.892;2023-06-19T06:59:44;20.00;76.70
47338;DHT22;33069;51.970;5.892;2023-06-19T07:02:10;20.00;76.50
47338;DHT22;33069;51.970;5.892;2023-06-19T07:04:36;20.10;76.50
47338;DHT22;33069;51.970;5.892;2023-06-19T07:07:02;20.20;76.40
47338;DHT22;33069;51.970;5.892;2023-06-19T07:09:29;20.20;76.10
47338;DHT22;33069;51.970;5.892;2023-06-19T07:11:55;20.30;75.90
47338;DHT22;33069;51.970;5.892;2023-06-19T07:14:22;20.00;76.10
47338;DHT22;33069;51.970;5.892;2023-06-19T07:16:49;20.00;74.60
47338;DHT22;33069;51.970;5.892;2023-06-19T07:19:15;20.10;73.80
47338;DHT22;33069;51.970;5.892;2023-06-19T07:21:41;20.30;73.00
47338;DHT22;33069;51.970;5.892;2023-06-19T07:24:07;20.50;72.10
47338;DHT22;33069;51.970;5.892;2023-06-19T07:26:33;20.70;71.70
47338;DHT22;33069;51.970;5.892;2023-06-19T07:28:59;20.70;69.70
47338;DHT22;33069;51.970;5.892;2023-06-19T07:31:25;20.70;68.50
47338;DHT22;33069;51.970;5.892;2023-06-19T07:33:50;20.70;67.90
47338;DHT22;33069;51.970;5.892;2023-06-19T07:36:16;20.80;67.50
47338;DHT22;33069;51.970;5.892;2023-06-19T07:38:43;21.20;67.20
47338;DHT22;33069;51.970;5.892;2023-06-19T07:41:09;21.20;66.70
47338;DHT22;33069;51.970;5.892;2023-06-19T07:43:36;21.50;65.80
47338;DHT22;33069;51.970;5.892;2023-06-19T07:46:03;21.60;65.00
47338;DHT22;33069;51.970;5.892;2023-06-19T07:48:28;21.50;64.30
47338;DHT22;33069;51.970;5.892;2023-06-19T07:50:54;21.30;65.10
47338;DHT22;33069;51.970;5.892;2023-06-19T07:53:20;21.40;64.90
47338;DHT22;33069;51.970;5.892;2023-06-19T07:55:46;21.30;64.10
47338;DHT22;33069;51.970;5.892;2023-06-19T07:58:12;21.50;64.70
47338;DHT22;33069;51.970;5.892;2023-06-19T08:00:37;21.90;63.70
47338;DHT22;33069;51.970;5.892;2023-06-19T08:03:04;21.60;62.90
47338;DHT22;33069;51.970;5.892;2023-06-19T08:05:30;21.30;63.50
47338;DHT22;33069;51.970;5.892;2023-06-19T08:07:56;21.50;62.90
47338;DHT22;33069;51.970;5.892;2023-06-19T08:10:23;21.60;63.40
47338;DHT22;33069;51.970;5.892;2023-06-19T08:12:49;21.30;63.60
47338;DHT22;33069;51.970;5.892;2023-06-19T08:15:15;21.60;63.60
47338;DHT22;33069;51.970;5.892;2023-06-19T08:17:41;21.40;62.90
47338;DHT22;33069;51.970;5.892;2023-06-19T08:20:07;21.40;64.00
47338;DHT22;33069;51.970;5.892;2023-06-19T08:22:34;21.30;63.50
47338;DHT22;33069;51.970;5.892;2023-06-19T08:24:59;20.80;64.40
47338;DHT22;33069;51.970;5.892;2023-06-19T08:27:25;20.70;65.50
47338;DHT22;33069;51.970;5.892;2023-06-19T08:29:51;21.20;63.40
47338;DHT22;33069;51.970;5.892;2023-06-19T08:32:17;21.40;62.30
47338;DHT22;33069;51.970;5.892;2023-06-19T08:34:43;21.30;63.10
47338;DHT22;33069;51.970;5.892;2023-06-19T08:37:08;21.60;63.00
47338;DHT22;33069;51.970;5.892;2023-06-19T08:39:34;21.60;61.60
47338;DHT22;33069;51.970;5.892;2023-06-19T08:42:06;21.40;62.90
47338;DHT22;33069;51.970;5.892;2023-06-19T08:44:33;21.30;64.10
47338;DHT22;33069;51.970;5.892;2023-06-19T08:47:01;21.70;62.70
47338;DHT22;33069;51.970;5.892;2023-06-19T08:49:29;21.70;62.60
47338;DHT22;33069;51.970;5.892;2023-06-19T08:51:56;21.40;63.90
47338;DHT22;33069;51.970;5.892;2023-06-19T08:54:21;21.30;64.50
47338;DHT22;33069;51.970;5.892;2023-06-19T08:56:48;21.50;63.70
47338;DHT22;33069;51.970;5.892;2023-06-19T08:59:15;21.70;64.20
47338;DHT22;33069;51.970;5.892;2023-06-19T09:01:52;21.80;63.00
47338;DHT22;33069;51.970;5.892;2023-06-19T09:04:26;21.50;64.50
47338;DHT22;33069;51.970;5.892;2023-06-19T09:09:24;21.40;66.10
47338;DHT22;33069;51.970;5.892;2023-06-19T09:12:06;21.70;64.40
47338;DHT22;33069;51.970;5.892;2023-06-19T09:17:05;21.50;65.20
47338;DHT22;33069;51.970;5.892;2023-06-19T09:19:32;21.30;65.30
47338;DHT22;33069;51.970;5.892;2023-06-19T09:22:08;21.50;65.30
47338;DHT22;33069;51.970;5.892;2023-06-19T09:24:40;21.60;65.10
47338;DHT22;33069;51.970;5.892;2023-06-19T09:27:24;22.00;63.90
47338;DHT22;33069;51.970;5.892;2023-06-19T09:29:50;21.80;64.00
47338;DHT22;33069;51.970;5.892;2023-06-19T09:32:20;21.50;65.90
47338;DHT22;33069;51.970;5.892;2023-06-19T09:34:46;22.00;63.90
47338;DHT22;33069;51.970;5.892;2023-06-19T09:37:12;22.10;63.90
47338;DHT22;33069;51.970;5.892;2023-06-19T09:39:39;22.50;61.40
47338;DHT22;33069;51.970;5.892;2023-06-19T09:42:09;22.20;62.50
47338;DHT22;33069;51.970;5.892;2023-06-19T09:44:47;22.20;62.30
47338;DHT22;33069;51.970;5.892;2023-06-19T09:47:22;22.00;63.10
47338;DHT22;33069;51.970;5.892;2023-06-19T09:49:54;21.70;63.70
47338;DHT22;33069;51.970;5.892;2023-06-19T09:52:20;22.30;63.20
47338;DHT22;33069;51.970;5.892;2023-06-19T09:54:53;22.30;61.60
47338;DHT22;33069;51.970;5.892;2023-06-19T09:57:19;22.50;61.40
47338;DHT22;33069;51.970;5.892;2023-06-19T09:59:51;22.80;60.40
47338;DHT22;33069;51.970;5.892;2023-06-19T10:02:19;22.70;60.90
47338;DHT22;33069;51.970;5.892;2023-06-19T10:04:50;22.90;60.70
47338;DHT22;33069;51.970;5.892;2023-06-19T10:07:17;22.40;62.30
47338;DHT22;33069;51.970;5.892;2023-06-19T10:10:22;22.70;60.40
47338;DHT22;33069;51.970;5.892;2023-06-19T10:12:45;22.30;62.00
47338;DHT22;33069;51.970;5.892;2023-06-19T10:15:19;22.70;60.80
47338;DHT22;33069;51.970;5.892;2023-06-19T10:18:05;23.00;59.10
47338;DHT22;33069;51.970;5.892;2023-06-19T10:23:07;22.30;61.90
47338;DHT22;33069;51.970;5.892;2023-06-19T10:25:35;22.70;59.90
47338;DHT22;33069;51.970;5.892;2023-06-19T10:28:01;22.90;58.80
47338;DHT22;33069;51.970;5.892;2023-06-19T10:30:27;23.00;58.30
47338;DHT22;33069;51.970;5.892;2023-06-19T10:32:53;22.30;60.60
47338;DHT22;33069;51.970;5.892;2023-06-19T10:35:19;22.30;61.60
47338;DHT22;33069;51.970;5.892;2023-06-19T10:37:49;22.60;61.80
47338;DHT22;33069;51.970;5.892;2023-06-19T10:40:16;23.00;58.90
47338;DHT22;33069;51.970;5.892;2023-06-19T10:42:43;22.90;59.30
47338;DHT22;33069;51.970;5.892;2023-06-19T10:45:13;22.50;61.20
47338;DHT22;33069;51.970;5.892;2023-06-19T10:47:41;22.20;62.10
47338;DHT22;33069;51.970;5.892;2023-06-19T10:50:12;22.80;59.70
47338;DHT22;33069;51.970;5.892;2023-06-19T10:52:43;23.10;59.10
47338;DHT22;33069;51.970;5.892;2023-06-19T10:55:09;23.30;58.00
47338;DHT22;33069;51.970;5.892;2023-06-19T10:57:35;23.00;59.40
47338;DHT22;33069;51.970;5.892;2023-06-19T11:00:02;23.00;59.20
47338;DHT22;33069;51.970;5.892;2023-06-19T11:02:35;23.20;59.10
47338;DHT22;33069;51.970;5.892;2023-06-19T11:05:02;22.90;59.50
47338;DHT22;33069;51.970;5.892;2023-06-19T11:07:28;23.40;58.30
47338;DHT22;33069;51.970;5.892;2023-06-19T11:09:54;23.70;57.10
47338;DHT22;33069;51.970;5.892;2023-06-19T11:12:20;23.60;57.40
47338;DHT22;33069;51.970;5.892;2023-06-19T11:14:48;23.70;56.10
47338;DHT22;33069;51.970;5.892;2023-06-19T11:17:14;23.60;58.80
47338;DHT22;33069;51.970;5.892;2023-06-19T11:19:40;24.00;56.40
47338;DHT22;33069;51.970;5.892;2023-06-19T11:22:07;24.00;53.30
47338;DHT22;33069;51.970;5.892;2023-06-19T11:24:33;24.20;54.00
47338;DHT22;33069;51.970;5.892;2023-06-19T11:26:59;24.50;53.70
47338;DHT22;33069;51.970;5.892;2023-06-19T11:29:29;24.60;53.20
47338;DHT22;33069;51.970;5.892;2023-06-19T11:32:11;24.80;53.90
47338;DHT22;33069;51.970;5.892;2023-06-19T11:34:37;24.30;53.50
47338;DHT22;33069;51.970;5.892;2023-06-19T11:37:17;23.70;56.30
47338;DHT22;33069;51.970;5.892;2023-06-19T11:39:48;24.00;54.10
47338;DHT22;33069;51.970;5.892;2023-06-19T11:42:14;24.20;53.60
47338;DHT22;33069;51.970;5.892;2023-06-19T11:44:55;24.20;53.20
47338;DHT22;33069;51.970;5.892;2023-06-19T11:47:21;24.20;53.40
47338;DHT22;33069;51.970;5.892;2023-06-19T11:49:48;23.90;54.60
47338;DHT22;33069;51.970;5.892;2023-06-19T11:52:15;24.00;53.80
47338;DHT22;33069;51.970;5.892;2023-06-19T11:54:40;24.10;54.10
47338;DHT22;33069;51.970;5.892;2023-06-19T11:57:06;24.10;53.30
47338;DHT22;33069;51.970;5.892;2023-06-19T11:59:32;24.30;53.60
47338;DHT22;33069;51.970;5.892;2023-06-19T12:01:58;24.10;51.70
47338;DHT22;33069;51.970;5.892;2023-06-19T12:04:25;23.80;53.10
47338;DHT22;33069;51.970;5.892;2023-06-19T12:06:52;24.30;52.20
47338;DHT22;33069;51.970;5.892;2023-06-19T12:09:18;24.30;51.80
47338;DHT22;33069;51.970;5.892;2023-06-19T12:11:44;24.10;52.60
47338;DHT22;33069;51.970;5.892;2023-06-19T12:14:10;23.80;52.80
47338;DHT22;33069;51.970;5.892;2023-06-19T12:16:35;24.00;51.90
47338;DHT22;33069;51.970;5.892;2023-06-19T12:19:01;23.80;51.20
47338;DHT22;33069;51.970;5.892;2023-06-19T12:21:27;24.30;50.40
47338;DHT22;33069;51.970;5.892;2023-06-19T12:23:52;24.10;50.30
47338;DHT22;33069;51.970;5.892;2023-06-19T12:26:19;24.10;49.80
47338;DHT22;33069;51.970;5.892;2023-06-19T12:28:44;23.90;51.30
47338;DHT22;33069;51.970;5.892;2023-06-19T12:31:10;24.30;49.20
47338;DHT22;33069;51.970;5.892;2023-06-19T12:33:36;24.30;48.10
47338;DHT22;33069;51.970;5.892;2023-06-19T12:36:04;24.30;49.00
47338;DHT22;33069;51.970;5.892;2023-06-19T12:38:31;24.00;50.70
47338;DHT22;33069;51.970;5.892;2023-06-19T12:40:57;24.30;48.90
47338;DHT22;33069;51.970;5.892;2023-06-19T12:43:22;23.90;52.10
47338;DHT22;33069;51.970;5.892;2023-06-19T12:45:48;24.30;53.20
47338;DHT22;33069;51.970;5.892;2023-06-19T12:48:14;24.00;51.00
47338;DHT22;33069;51.970;5.892;2023-06-19T12:50:39;24.00;53.00
47338;DHT22;33069;51.970;5.892;2023-06-19T12:53:05;24.30;50.40
47338;DHT22;33069;51.970;5.892;2023-06-19T12:55:31;24.30;49.70
47338;DHT22;33069;51.970;5.892;2023-06-19T12:57:56;24.30;49.80
47338;DHT22;33069;51.970;5.892;2023-06-19T13:00:22;24.40;50.60
47338;DHT22;33069;51.970;5.892;2023-06-19T13:02:48;24.20;50.60
47338;DHT22;33069;51.970;5.892;2023-06-19T13:05:13;24.60;49.40
47338;DHT22;33069;51.970;5.892;2023-06-19T13:07:39;24.80;48.40
47338;DHT22;33069;51.970;5.892;2023-06-19T13:10:05;24.80;48.30
47338;DHT22;33069;51.970;5.892;2023-06-19T13:12:32;24.80;49.50
47338;DHT22;33069;51.970;5.892;2023-06-19T13:14:58;25.10;48.30
47338;DHT22;33069;51.970;5.892;2023-06-19T13:17:24;25.00;50.70
47338;DHT22;33069;51.970;5.892;2023-06-19T13:19:49;25.00;51.30
47338;DHT22;33069;51.970;5.892;2023-06-19T13:22:15;25.10;50.90
47338;DHT22;33069;51.970;5.892;2023-06-19T13:24:41;25.10;51.90
47338;DHT22;33069;51.970;5.892;2023-06-19T13:27:06;24.90;51.20
47338;DHT22;33069;51.970;5.892;2023-06-19T13:29:32;25.00;52.40
47338;DHT22;33069;51.970;5.892;2023-06-19T13:31:58;25.10;50.40
47338;DHT22;33069;51.970;5.892;2023-06-19T13:34:23;25.10;51.70
47338;DHT22;33069;51.970;5.892;2023-06-19T13:36:49;25.20;50.30
47338;DHT22;33069;51.970;5.892;2023-06-19T13:39:15;25.20;50.50
47338;DHT22;33069;51.970;5.892;2023-06-19T13:41:45;25.50;48.90
47338;DHT22;33069;51.970;5.892;2023-06-19T13:44:10;25.70;49.00
47338;DHT22;33069;51.970;5.892;2023-06-19T13:46:38;25.30;49.70
47338;DHT22;33069;51.970;5.892;2023-06-19T13:49:03;25.50;51.70
47338;DHT22;33069;51.970;5.892;2023-06-19T13:51:29;25.70;49.70
47338;DHT22;33069;51.970;5.892;2023-06-19T13:53:55;25.70;48.40
47338;DHT22;33069;51.970;5.892;2023-06-19T13:56:20;26.30;49.50
47338;DHT22;33069;51.970;5.892;2023-06-19T13:58:48;25.70;49.00
47338;DHT22;33069;51.970;5.892;2023-06-19T14:01:14;26.00;47.40
47338;DHT22;33069;51.970;5.892;2023-06-19T14:03:40;25.20;50.80
47338;DHT22;33069;51.970;5.892;2023-06-19T14:06:06;25.60;50.10
47338;DHT22;33069;51.970;5.892;2023-06-19T14:08:32;26.20;48.40
47338;DHT22;33069;51.970;5.892;2023-06-19T14:10:59;26.70;48.10
47338;DHT22;33069;51.970;5.892;2023-06-19T14:13:25;26.50;49.10
47338;DHT22;33069;51.970;5.892;2023-06-19T14:15:52;26.00;50.00
47338;DHT22;33069;51.970;5.892;2023-06-19T14:18:18;26.20;48.40
47338;DHT22;33069;51.970;5.892;2023-06-19T14:20:44;25.90;49.70
47338;DHT22;33069;51.970;5.892;2023-06-19T14:23:09;26.20;48.90
47338;DHT22;33069;51.970;5.892;2023-06-19T14:25:35;26.20;49.30
47338;DHT22;33069;51.970;5.892;2023-06-19T14:28:01;26.10;49.20
47338;DHT22;33069;51.970;5.892;2023-06-19T14:30:26;26.80;47.70
47338;DHT22;33069;51.970;5.892;2023-06-19T14:32:52;26.70;47.60
47338;DHT22;33069;51.970;5.892;2023-06-19T14:35:18;26.20;47.70
47338;DHT22;33069;51.970;5.892;2023-06-19T14:37:44;27.00;46.10
47338;DHT22;33069;51.970;5.892;2023-06-19T14:40:10;26.60;47.20
47338;DHT22;33069;51.970;5.892;2023-06-19T14:42:35;26.30;47.90
47338;DHT22;33069;51.970;5.892;2023-06-19T14:45:01;26.90;46.70
47338;DHT22;33069;51.970;5.892;2023-06-19T14:47:27;26.30;48.30
47338;DHT22;33069;51.970;5.892;2023-06-19T14:49:52;26.80;47.70
47338;DHT22;33069;51.970;5.892;2023-06-19T14:52:21;27.10;45.70
47338;DHT22;33069;51.970;5.892;2023-06-19T14:54:47;27.50;45.30
47338;DHT22;33069;51.970;5.892;2023-06-19T14:57:13;28.00;45.40
47338;DHT22;33069;51.970;5.892;2023-06-19T14:59:38;27.60;46.00
47338;DHT22;33069;51.970;5.892;2023-06-19T15:02:05;27.40;46.30
47338;DHT22;33069;51.970;5.892;2023-06-19T15:04:32;27.10;45.30
47338;DHT22;33069;51.970;5.892;2023-06-19T15:06:58;26.80;47.30
47338;DHT22;33069;51.970;5.892;2023-06-19T15:09:24;27.30;45.10
47338;DHT22;33069;51.970;5.892;2023-06-19T15:11:51;27.50;44.80
47338;DHT22;33069;51.970;5.892;2023-06-19T15:14:18;27.20;45.30
47338;DHT22;33069;51.970;5.892;2023-06-19T15:16:44;26.80;46.80
47338;DHT22;33069;51.970;5.892;2023-06-19T15:19:09;27.30;45.70
47338;DHT22;33069;51.970;5.892;2023-06-19T15:21:35;26.80;46.60
47338;DHT22;33069;51.970;5.892;2023-06-19T15:24:01;27.40;44.80
47338;DHT22;33069;51.970;5.892;2023-06-19T15:26:26;28.10;44.30
47338;DHT22;33069;51.970;5.892;2023-06-19T15:28:52;28.50;43.40
47338;DHT22;33069;51.970;5.892;2023-06-19T15:31:21;29.20;41.60
47338;DHT22;33069;51.970;5.892;2023-06-19T15:33:48;28.80;41.20
47338;DHT22;33069;51.970;5.892;2023-06-19T15:36:14;28.30;42.30